Time;durP1;ratioP1;P1;durP2;ratioP2;P2;SDS_P1;SDS_P2;PMS_P1;PMS_P2;Temp;Humidity;BMP_temperature;BMP_pressure;BME280_temperature;BME280_humidity;BME280_pressure;Samples;Min_cycle;Max_cycle;Signal;HPM_P1;HPM_P2
2022/12/23 00:01:51;;;;;;;7.77;1.87;;;11.50;99.90;;;;;;4995466;28;20472;-77
2022/12/23 00:04:26;;;;;;;5.87;2.57;;;11.50;99.90;;;;;;4997629;28;20482;-77
2022/12/23 00:06:53;;;;;;;7.43;2.40;;;11.50;99.90;;;;;;4997799;28;20450;-78
2022/12/23 00:09:19;;;;;;;4.93;2.27;;;11.50;99.90;;;;;;4997275;28;20984;-78
2022/12/23 00:15:04;;;;;;;11.73;2.40;;;11.50;99.90;;;;;;4997437;28;20458;-77
2022/12/23 00:17:24;;;;;;;8.90;2.43;;;11.40;99.90;;;;;;5017655;28;20427;-76
2022/12/23 00:19:52;;;;;;;4.70;2.43;;;11.40;99.90;;;;;;5014565;28;20436;-76
2022/12/23 00:23:03;;;;;;;5.17;2.10;;;11.40;99.90;;;;;;5011001;28;20565;-76
2022/12/23 00:25:06;;;;;;;4.83;2.40;;;11.40;99.90;;;;;;5006355;28;20473;-76
2022/12/23 00:27:33;;;;;;;4.67;1.87;;;11.30;99.90;;;;;;5005841;28;20452;-77
2022/12/23 00:30:00;;;;;;;5.60;1.73;;;11.30;99.90;;;;;;5006365;28;20448;-76
2022/12/23 00:32:26;;;;;;;3.80;1.80;;;11.30;99.90;;;;;;5005439;28;20460;-76
2022/12/23 00:34:54;;;;;;;6.03;1.80;;;11.30;99.90;;;;;;5006182;28;20483;-76
2022/12/23 00:37:21;;;;;;;8.20;2.07;;;11.30;99.90;;;;;;5005698;28;20463;-76
2022/12/23 00:45:18;;;;;;;5.43;2.10;;;11.30;99.90;;;;;;4987897;28;20472;-77
2022/12/23 00:50:34;;;;;;;6.83;2.37;;;11.30;99.90;;;;;;4986556;28;20492;-77
2022/12/23 00:53:01;;;;;;;6.17;1.97;;;11.30;99.90;;;;;;4989470;28;20472;-77
2022/12/23 00:55:30;;;;;;;7.53;2.37;;;11.30;99.90;;;;;;4987018;28;20874;-77
2022/12/23 00:57:57;;;;;;;5.70;2.07;;;11.40;99.90;;;;;;4984978;28;20461;-77
2022/12/23 01:05:51;;;;;;;3.87;2.63;;;11.30;99.90;;;;;;4986006;28;20893;-78
2022/12/23 01:08:18;;;;;;;9.63;2.70;;;11.30;99.90;;;;;;4984144;28;20453;-78
2022/12/23 01:10:46;;;;;;;5.70;2.77;;;11.20;99.90;;;;;;4984257;28;20866;-78
2022/12/23 01:13:12;;;;;;;6.33;3.10;;;11.20;99.90;;;;;;4983760;28;20496;-77
2022/12/23 01:15:39;;;;;;;4.53;2.90;;;11.20;99.90;;;;;;4982598;28;20476;-77
2022/12/23 01:18:06;;;;;;;7.67;3.30;;;11.20;99.90;;;;;;4982587;28;20458;-78
2022/12/23 01:20:32;;;;;;;3.60;2.53;;;11.20;99.90;;;;;;4981403;28;20489;-77
2022/12/23 01:23:01;;;;;;;8.90;4.13;;;11.30;99.90;;;;;;4981403;28;20969;-77
2022/12/23 01:25:27;;;;;;;7.07;3.83;;;11.30;99.90;;;;;;4980740;28;20481;-77
2022/12/23 01:27:54;;;;;;;6.80;3.53;;;11.20;99.90;;;;;;4980211;28;20460;-77
2022/12/23 01:30:21;;;;;;;9.53;3.60;;;11.20;99.90;;;;;;4980893;28;20456;-77
2022/12/23 01:32:47;;;;;;;9.47;4.40;;;11.30;99.90;;;;;;4980138;28;20476;-76
2022/12/23 01:35:14;;;;;;;4.90;3.80;;;11.30;99.90;;;;;;4980116;28;20488;-77
2022/12/23 01:37:42;;;;;;;6.50;4.00;;;11.30;99.90;;;;;;4979867;28;20461;-76
2022/12/23 01:40:11;;;;;;;7.63;3.73;;;11.30;99.90;;;;;;4978497;28;20441;-77
2022/12/23 01:42:42;;;;;;;7.90;4.70;;;11.30;99.90;;;;;;4977916;28;21019;-78
2022/12/23 01:45:15;;;;;;;6.60;4.60;;;11.30;99.90;;;;;;4993463;28;20478;-78
2022/12/23 01:47:45;;;;;;;8.83;4.83;;;11.30;99.90;;;;;;4997199;28;20439;-79
2022/12/23 01:50:16;;;;;;;8.50;4.70;;;11.30;99.90;;;;;;4991570;28;20589;-77
2022/12/23 01:52:46;;;;;;;6.40;3.87;;;11.30;99.90;;;;;;4977913;28;20788;-77
2022/12/23 01:55:19;;;;;;;7.03;4.97;;;11.20;99.90;;;;;;4977187;28;20480;-77
2022/12/23 01:57:46;;;;;;;8.60;4.33;;;11.30;99.90;;;;;;4977807;28;20914;-77
2022/12/23 02:05:44;;;;;;;8.80;5.50;;;11.10;99.90;;;;;;4976938;28;20457;-78
2022/12/23 02:11:27;;;;;;;11.70;7.13;;;11.30;99.90;;;;;;4977705;28;20475;-77
2022/12/23 02:17:02;;;;;;;9.80;6.10;;;11.20;99.90;;;;;;4977227;28;20421;-78
2022/12/23 02:19:57;;;;;;;8.43;6.90;;;11.30;99.90;;;;;;4977058;28;20445;-78
2022/12/23 02:22:47;;;;;;;10.63;6.20;;;11.30;99.90;;;;;;4977007;28;20477;-77
2022/12/23 02:25:44;;;;;;;10.80;6.90;;;11.30;99.90;;;;;;4976574;28;20484;-77
2022/12/23 02:28:41;;;;;;;13.87;7.60;;;11.20;99.90;;;;;;4976684;28;20443;-77
2022/12/23 02:31:21;;;;;;;10.50;7.00;;;11.20;99.90;;;;;;4971601;28;20475;-77
2022/12/23 02:33:54;;;;;;;9.93;7.27;;;11.20;99.90;;;;;;4975779;28;20913;-77
2022/12/23 02:36:29;;;;;;;16.50;7.87;;;11.10;99.90;;;;;;4975774;28;20428;-78
2022/12/23 02:39:01;;;;;;;11.90;7.60;;;11.10;99.90;;;;;;4975491;28;20916;-77
2022/12/23 02:41:33;;;;;;;11.17;7.13;;;11.10;99.90;;;;;;4975432;28;20814;-77
2022/12/23 02:44:09;;;;;;;13.87;7.10;;;11.10;99.90;;;;;;4975717;28;20471;-77
2022/12/23 02:46:44;;;;;;;12.97;6.90;;;11.10;99.90;;;;;;4975054;28;20447;-77
2022/12/23 02:49:14;;;;;;;11.57;6.87;;;11.10;99.90;;;;;;4975346;28;20463;-76
2022/12/23 02:51:47;;;;;;;8.57;6.93;;;11.20;99.90;;;;;;4975825;28;20987;-77
2022/12/23 02:54:22;;;;;;;11.33;6.83;;;11.20;99.90;;;;;;4975994;28;20488;-77
2022/12/23 02:56:52;;;;;;;10.60;6.83;;;11.20;99.90;;;;;;4975198;28;20821;-76
2022/12/23 02:59:22;;;;;;;9.90;6.27;;;11.20;99.90;;;;;;4975718;28;20954;-78
2022/12/23 03:01:51;;;;;;;11.80;7.17;;;11.20;99.90;;;;;;4981730;28;20471;-77
2022/12/23 03:04:18;;;;;;;16.23;6.70;;;11.20;99.90;;;;;;4989346;28;20484;-77
2022/12/23 03:06:48;;;;;;;13.60;6.43;;;11.20;99.90;;;;;;4986430;28;20464;-77
2022/12/23 03:09:23;;;;;;;9.23;5.67;;;11.20;99.90;;;;;;4990076;28;20463;-77
2022/12/23 03:11:58;;;;;;;10.53;6.80;;;11.20;99.90;;;;;;4979816;28;20943;-78
2022/12/23 03:14:42;;;;;;;16.23;7.07;;;11.20;99.90;;;;;;4976426;28;20483;-78
2022/12/23 03:17:25;;;;;;;14.47;6.70;;;11.20;99.90;;;;;;4976826;28;20445;-78
2022/12/23 03:19:57;;;;;;;14.73;6.83;;;11.20;99.90;;;;;;4975955;28;20440;-77
2022/12/23 03:22:32;;;;;;;14.10;6.63;;;11.20;99.90;;;;;;4975596;28;20488;-77
2022/12/23 03:25:09;;;;;;;9.30;6.40;;;11.20;99.90;;;;;;4975338;28;21017;-77
2022/12/23 03:27:41;;;;;;;10.73;6.60;;;11.20;99.90;;;;;;4975224;28;20448;-77
2022/12/23 03:30:11;;;;;;;11.80;8.17;;;11.20;99.90;;;;;;4976202;28;20445;-78
2022/12/23 03:32:45;;;;;;;12.90;6.63;;;11.20;99.90;;;;;;4975672;28;20465;-77
2022/12/23 03:35:14;;;;;;;15.77;7.00;;;11.20;99.90;;;;;;4975652;28;20489;-77
2022/12/23 03:37:46;;;;;;;13.03;6.70;;;11.10;99.90;;;;;;4978183;28;20433;-79
2022/12/23 03:40:17;;;;;;;9.20;6.00;;;11.20;99.90;;;;;;4979248;28;20460;-77
2022/12/23 03:42:49;;;;;;;12.73;7.23;;;11.20;99.90;;;;;;4979728;28;20487;-78
2022/12/23 03:45:21;;;;;;;9.27;6.20;;;11.20;99.90;;;;;;4978893;28;20484;-76
2022/12/23 03:47:53;;;;;;;13.93;6.43;;;11.20;99.90;;;;;;4979436;28;20887;-78
2022/12/23 03:50:22;;;;;;;11.80;6.07;;;11.20;99.90;;;;;;4979738;28;20883;-78
2022/12/23 03:52:55;;;;;;;8.70;5.03;;;11.20;99.90;;;;;;4979740;28;20452;-77
2022/12/23 03:55:26;;;;;;;10.23;4.77;;;11.20;99.90;;;;;;4978811;28;20487;-77
2022/12/23 03:58:01;;;;;;;10.80;5.00;;;11.20;99.90;;;;;;4978400;28;20447;-78
2022/12/23 04:00:34;;;;;;;15.60;6.07;;;11.20;99.90;;;;;;4978993;28;20464;-77
2022/12/23 04:03:11;;;;;;;11.90;4.50;;;11.20;99.90;;;;;;4978504;28;20833;-78
2022/12/23 04:05:40;;;;;;;8.20;4.10;;;11.20;99.90;;;;;;4979385;28;20481;-77
2022/12/23 04:08:13;;;;;;;11.20;4.57;;;11.20;99.90;;;;;;4978672;28;20461;-77
2022/12/23 04:10:42;;;;;;;10.50;4.23;;;11.20;99.90;;;;;;4979230;28;20433;-77
2022/12/23 04:13:09;;;;;;;12.80;4.80;;;11.20;99.90;;;;;;4978315;28;20457;-78
2022/12/23 04:15:39;;;;;;;7.07;3.60;;;11.20;99.90;;;;;;4978101;28;20480;-76
2022/12/23 04:18:09;;;;;;;7.67;3.30;;;11.20;99.90;;;;;;4978858;28;20436;-78
2022/12/23 04:20:36;;;;;;;11.30;4.07;;;11.20;99.90;;;;;;4978418;28;20460;-77
2022/12/23 04:23:03;;;;;;;5.00;2.70;;;11.20;99.90;;;;;;4978117;28;21011;-77
2022/12/23 04:25:29;;;;;;;7.03;3.03;;;11.20;99.90;;;;;;4978294;28;20493;-77
2022/12/23 04:27:56;;;;;;;13.93;3.10;;;11.20;99.90;;;;;;4977596;28;20833;-77
2022/12/23 04:30:23;;;;;;;7.80;3.40;;;11.20;99.90;;;;;;4978201;28;20459;-78
2022/12/23 04:32:51;;;;;;;4.33;2.53;;;11.20;99.90;;;;;;4977570;28;20480;-76
2022/12/23 04:35:19;;;;;;;6.90;3.50;;;11.20;99.90;;;;;;4978126;28;20490;-78
2022/12/23 04:37:45;;;;;;;5.33;2.70;;;11.20;99.90;;;;;;4977826;28;20462;-76
2022/12/23 04:40:13;;;;;;;5.63;2.20;;;11.20;99.90;;;;;;4977894;28;20518;-77
2022/12/23 04:42:39;;;;;;;6.77;1.80;;;11.20;99.90;;;;;;4977620;28;20869;-77
2022/12/23 04:45:07;;;;;;;7.83;2.80;;;11.20;99.90;;;;;;4977659;28;20469;-77
2022/12/23 04:47:34;;;;;;;8.37;2.50;;;11.20;99.90;;;;;;4977441;28;20441;-77
2022/12/23 04:50:01;;;;;;;4.30;2.43;;;11.10;99.90;;;;;;4977709;28;20563;-76
2022/12/23 04:52:29;;;;;;;6.00;2.40;;;11.10;99.90;;;;;;4977956;28;20452;-78
2022/12/23 04:54:55;;;;;;;7.40;2.97;;;11.10;99.90;;;;;;4986845;28;20484;-77
2022/12/23 04:57:22;;;;;;;6.93;2.50;;;11.00;99.90;;;;;;4993652;28;20464;-77
2022/12/23 04:59:49;;;;;;;11.30;2.87;;;11.10;99.90;;;;;;4986084;28;20464;-76
2022/12/23 05:02:16;;;;;;;4.60;2.47;;;11.00;99.90;;;;;;4978283;28;20440;-77
2022/12/23 05:04:42;;;;;;;8.20;3.23;;;11.00;99.90;;;;;;4977107;28;21027;-76
2022/12/23 05:07:09;;;;;;;7.20;2.90;;;11.00;99.90;;;;;;4977228;28;20445;-76
2022/12/23 05:09:37;;;;;;;5.07;3.00;;;11.00;99.90;;;;;;4977125;28;20459;-77
2022/12/23 05:12:04;;;;;;;8.00;4.33;;;11.00;99.90;;;;;;4977177;28;20463;-76
2022/12/23 05:14:31;;;;;;;5.53;4.00;;;10.90;99.90;;;;;;4977037;28;20474;-77
2022/12/23 05:16:57;;;;;;;9.27;4.07;;;10.90;99.90;;;;;;4977143;28;20848;-77
2022/12/23 05:19:24;;;;;;;7.00;3.83;;;11.00;99.90;;;;;;4975784;28;20972;-76
2022/12/23 05:21:51;;;;;;;10.20;4.27;;;11.00;99.90;;;;;;4977826;28;20478;-77
2022/12/23 05:24:17;;;;;;;6.47;4.43;;;11.00;99.90;;;;;;4977599;28;20497;-76
2022/12/23 05:26:48;;;;;;;8.10;3.40;;;11.00;99.90;;;;;;4978090;28;20451;-77
2022/12/23 05:29:15;;;;;;;6.03;4.30;;;11.10;99.90;;;;;;4986699;28;20468;-76
2022/12/23 05:31:42;;;;;;;7.57;3.83;;;11.10;99.90;;;;;;4996758;28;20458;-75
2022/12/23 05:34:08;;;;;;;5.37;3.60;;;11.10;99.90;;;;;;4994207;28;20491;-76
2022/12/23 05:36:35;;;;;;;8.57;4.60;;;11.10;99.90;;;;;;4995925;28;20830;-76
2022/12/23 05:39:02;;;;;;;6.30;3.90;;;11.10;99.90;;;;;;4996625;28;20443;-77
2022/12/23 05:41:31;;;;;;;8.20;7.03;;;11.10;99.90;;;;;;4994191;28;20475;-76
2022/12/23 05:43:59;;;;;;;10.97;4.77;;;11.10;99.90;;;;;;4997551;28;20503;-76
2022/12/23 05:46:26;;;;;;;8.27;4.77;;;11.00;99.90;;;;;;4998726;28;20455;-77
2022/12/23 05:48:54;;;;;;;10.23;5.63;;;11.00;99.90;;;;;;4996035;28;20800;-77
2022/12/23 05:51:21;;;;;;;11.07;4.80;;;11.10;99.90;;;;;;4992091;28;20990;-76
2022/12/23 05:53:47;;;;;;;6.40;4.07;;;11.10;99.90;;;;;;4987455;28;20833;-76
2022/12/23 05:56:14;;;;;;;10.90;4.80;;;11.10;99.90;;;;;;4996517;28;20468;-76
2022/12/23 05:58:41;;;;;;;13.90;5.30;;;11.10;99.90;;;;;;4990140;28;20485;-75
2022/12/23 06:01:09;;;;;;;7.43;4.70;;;11.00;99.90;;;;;;4994678;28;20480;-76
2022/12/23 06:03:36;;;;;;;8.80;5.30;;;11.00;99.90;;;;;;4995299;28;20513;-76
2022/12/23 06:06:02;;;;;;;7.70;5.00;;;11.00;99.90;;;;;;4995248;28;20487;-76
2022/12/23 06:08:29;;;;;;;14.77;5.07;;;11.00;99.90;;;;;;4995248;28;20440;-76
2022/12/23 06:10:56;;;;;;;9.77;4.67;;;11.10;99.90;;;;;;4995130;28;20467;-76
2022/12/23 06:13:22;;;;;;;9.80;4.80;;;11.10;99.90;;;;;;4995012;28;20505;-76
2022/12/23 06:15:49;;;;;;;10.50;4.50;;;11.20;99.90;;;;;;4994992;28;20480;-76
2022/12/23 06:18:17;;;;;;;7.50;4.20;;;11.20;99.90;;;;;;4994964;28;20478;-76
2022/12/23 06:20:46;;;;;;;5.60;4.67;;;11.20;99.90;;;;;;4995246;28;20456;-76
2022/12/23 06:23:13;;;;;;;10.27;5.13;;;11.20;99.90;;;;;;4995221;28;21060;-76
2022/12/23 06:25:39;;;;;;;10.03;4.67;;;11.20;99.90;;;;;;4995064;28;20456;-76
2022/12/23 06:28:07;;;;;;;6.93;4.73;;;11.10;99.90;;;;;;4994818;28;20868;-76
2022/12/23 06:30:33;;;;;;;15.30;5.10;;;11.10;99.90;;;;;;4995483;28;20460;-76
2022/12/23 06:33:00;;;;;;;12.33;5.20;;;11.20;99.90;;;;;;4996391;28;20440;-76
2022/12/23 06:35:28;;;;;;;13.83;5.87;;;11.20;99.90;;;;;;4994669;28;20475;-76
2022/12/23 06:37:55;;;;;;;8.30;5.40;;;11.20;99.90;;;;;;4994654;28;20463;-75
2022/12/23 06:40:22;;;;;;;11.73;6.27;;;11.20;99.90;;;;;;4994621;28;20436;-77
2022/12/23 06:42:49;;;;;;;10.73;6.17;;;11.20;99.90;;;;;;4994410;28;20464;-76
2022/12/23 06:45:16;;;;;;;17.37;6.40;;;11.20;99.90;;;;;;4994507;28;20491;-75
2022/12/23 06:47:42;;;;;;;12.60;7.13;;;11.20;99.90;;;;;;4994346;28;20460;-76
2022/12/23 06:50:09;;;;;;;11.07;6.90;;;11.20;99.90;;;;;;4994422;28;20459;-76
2022/12/23 06:52:37;;;;;;;12.17;7.63;;;11.20;99.90;;;;;;4994370;28;20448;-76
2022/12/23 06:55:05;;;;;;;10.73;6.37;;;11.20;99.90;;;;;;4994381;28;20468;-75
2022/12/23 06:57:32;;;;;;;11.10;6.60;;;11.30;99.90;;;;;;4994269;28;20468;-76
2022/12/23 06:59:58;;;;;;;8.37;5.80;;;11.30;99.90;;;;;;4994288;28;20832;-75
2022/12/23 07:02:25;;;;;;;9.87;5.87;;;11.40;99.90;;;;;;4994138;28;20534;-76
2022/12/23 07:04:52;;;;;;;15.70;7.10;;;11.40;99.90;;;;;;4993862;28;21045;-76
2022/12/23 07:07:18;;;;;;;8.03;5.77;;;11.40;99.90;;;;;;4994158;28;20483;-76
2022/12/23 07:09:46;;;;;;;11.73;5.90;;;11.40;99.90;;;;;;4994145;28;20449;-75
2022/12/23 07:12:13;;;;;;;9.07;5.77;;;11.40;99.90;;;;;;4993268;28;20994;-76
2022/12/23 07:14:40;;;;;;;12.87;6.93;;;11.40;99.90;;;;;;4994065;28;20506;-76
2022/12/23 07:17:07;;;;;;;14.10;7.20;;;11.30;99.90;;;;;;4993667;28;20831;-75
2022/12/23 07:19:35;;;;;;;22.27;7.97;;;11.30;99.90;;;;;;4994067;28;20462;-76
2022/12/23 07:22:02;;;;;;;9.50;6.53;;;11.30;99.90;;;;;;4993868;28;20886;-76
2022/12/23 07:24:29;;;;;;;11.60;6.13;;;11.30;99.90;;;;;;4994071;28;20496;-76
2022/12/23 07:26:57;;;;;;;9.40;5.63;;;11.30;99.90;;;;;;4994698;28;20949;-75
2022/12/23 07:29:24;;;;;;;15.00;5.80;;;11.40;99.90;;;;;;4993908;28;20465;-75
2022/12/23 07:31:51;;;;;;;11.67;6.70;;;11.40;99.90;;;;;;4993836;28;20471;-76
2022/12/23 07:34:18;;;;;;;10.23;5.40;;;11.40;99.90;;;;;;4994025;28;20545;-76
2022/12/23 07:36:45;;;;;;;9.30;6.07;;;11.30;99.90;;;;;;4993907;28;20464;-76
2022/12/23 07:39:14;;;;;;;11.43;7.63;;;11.30;99.90;;;;;;4993870;28;20451;-76
2022/12/23 07:41:41;;;;;;;13.17;6.70;;;11.30;99.90;;;;;;4993541;28;20953;-77
2022/12/23 07:44:09;;;;;;;13.60;6.10;;;11.30;99.90;;;;;;4993736;28;20503;-76
2022/12/23 07:46:36;;;;;;;9.67;5.97;;;11.30;99.90;;;;;;4993515;28;20983;-76
2022/12/23 07:49:03;;;;;;;9.77;5.57;;;11.30;99.90;;;;;;4993739;28;20448;-76
2022/12/23 07:51:29;;;;;;;10.03;6.03;;;11.30;99.90;;;;;;4977423;28;20487;-76
2022/12/23 07:53:56;;;;;;;7.63;5.43;;;11.30;99.90;;;;;;4974284;28;20456;-76
2022/12/23 07:56:23;;;;;;;11.73;6.27;;;11.30;99.90;;;;;;4974400;28;20464;-76
2022/12/23 07:58:51;;;;;;;10.70;5.90;;;11.30;99.90;;;;;;4974299;28;20450;-75
2022/12/23 08:01:19;;;;;;;11.20;6.73;;;11.40;99.90;;;;;;4974025;28;20460;-77
2022/12/23 08:03:46;;;;;;;8.30;6.17;;;11.40;99.90;;;;;;4974193;28;20560;-77
2022/12/23 08:06:15;;;;;;;9.60;6.63;;;11.40;99.90;;;;;;4974259;28;20464;-77
2022/12/23 08:08:43;;;;;;;9.03;7.03;;;11.40;99.90;;;;;;4974187;28;20465;-76
2022/12/23 08:11:11;;;;;;;10.97;7.43;;;11.40;99.90;;;;;;4974158;28;20457;-76
2022/12/23 08:13:39;;;;;;;13.60;7.20;;;11.50;99.90;;;;;;4974160;28;20473;-77
2022/12/23 08:16:07;;;;;;;9.87;7.90;;;11.50;99.90;;;;;;4974446;28;20457;-76
2022/12/23 08:18:37;;;;;;;11.53;7.37;;;11.50;99.90;;;;;;4974092;28;20462;-76
2022/12/23 08:21:06;;;;;;;9.80;7.43;;;11.40;99.90;;;;;;4974186;28;20456;-76
2022/12/23 08:23:33;;;;;;;10.70;8.20;;;11.50;99.90;;;;;;4976440;28;20496;-76
2022/12/23 08:26:01;;;;;;;10.53;8.17;;;11.50;99.90;;;;;;4977895;28;20481;-76
2022/12/23 08:28:29;;;;;;;12.07;7.57;;;11.50;99.90;;;;;;4977564;28;20832;-76
2022/12/23 08:30:56;;;;;;;11.43;8.40;;;11.50;99.90;;;;;;4977350;28;20461;-76
2022/12/23 08:33:22;;;;;;;16.10;9.50;;;11.50;99.90;;;;;;4977585;28;20471;-76
2022/12/23 08:35:53;;;;;;;17.73;11.07;;;11.60;99.90;;;;;;4977416;28;20484;-77
2022/12/23 08:38:20;;;;;;;13.93;10.37;;;11.60;99.90;;;;;;4977549;28;20465;-77
2022/12/23 08:40:49;;;;;;;9.33;7.17;;;11.70;99.90;;;;;;4977611;28;20457;-77
2022/12/23 08:43:15;;;;;;;12.20;8.47;;;11.70;99.90;;;;;;4977307;28;20447;-77
2022/12/23 08:45:42;;;;;;;10.23;6.70;;;11.70;99.90;;;;;;4977170;28;20485;-76
2022/12/23 08:48:09;;;;;;;11.77;8.47;;;11.70;99.90;;;;;;4977454;28;20454;-76
2022/12/23 08:50:38;;;;;;;15.57;9.20;;;11.80;99.90;;;;;;4978236;28;20461;-76
2022/12/23 08:53:07;;;;;;;15.70;9.00;;;11.80;99.90;;;;;;4977434;28;20460;-77
2022/12/23 08:55:37;;;;;;;10.43;7.90;;;11.80;99.90;;;;;;4977105;28;20473;-76
2022/12/23 08:58:04;;;;;;;12.50;8.80;;;11.80;99.90;;;;;;4976967;28;20864;-76
2022/12/23 09:00:31;;;;;;;11.30;9.80;;;11.90;99.90;;;;;;4976697;28;20458;-77
2022/12/23 09:02:58;;;;;;;11.00;8.20;;;11.90;99.90;;;;;;4976943;28;20472;-77
2022/12/23 09:05:28;;;;;;;13.47;7.53;;;11.90;99.90;;;;;;4976787;28;20499;-76
2022/12/23 09:07:54;;;;;;;11.30;7.47;;;11.90;99.90;;;;;;4976751;28;20453;-76
2022/12/23 09:10:23;;;;;;;14.80;8.20;;;11.90;99.90;;;;;;4976800;28;20476;-76
2022/12/23 09:12:50;;;;;;;14.10;7.63;;;11.90;99.90;;;;;;4977040;28;20453;-76
2022/12/23 09:15:17;;;;;;;10.20;7.20;;;11.90;99.90;;;;;;4976678;28;20469;-76
2022/12/23 09:17:44;;;;;;;14.70;6.80;;;11.90;99.90;;;;;;4976720;28;20468;-76
2022/12/23 09:20:11;;;;;;;14.10;6.27;;;12.00;99.90;;;;;;4976692;28;20484;-76
2022/12/23 09:22:38;;;;;;;13.97;6.03;;;12.00;99.90;;;;;;4976589;28;20966;-76
2022/12/23 09:25:05;;;;;;;12.07;6.63;;;12.00;99.90;;;;;;4976433;28;20493;-76
2022/12/23 09:27:33;;;;;;;17.73;7.87;;;12.00;99.90;;;;;;4976601;28;20508;-76
2022/12/23 09:30:00;;;;;;;15.10;6.33;;;12.00;99.90;;;;;;4976687;28;20530;-76
2022/12/23 09:32:27;;;;;;;16.90;7.20;;;12.00;99.90;;;;;;4976406;28;20954;-76
2022/12/23 09:34:54;;;;;;;13.23;6.57;;;12.00;99.90;;;;;;4975441;28;20501;-76
2022/12/23 09:37:20;;;;;;;10.23;7.27;;;12.00;99.90;;;;;;4976913;28;20469;-76
2022/12/23 09:39:47;;;;;;;14.47;8.03;;;12.00;99.90;;;;;;4976550;28;20950;-76
2022/12/23 09:42:28;;;;;;;10.00;7.30;;;11.90;99.90;;;;;;4983399;28;20463;-76
2022/12/23 09:45:12;;;;;;;8.20;6.73;;;12.00;99.90;;;;;;4990363;28;20492;-77
2022/12/23 09:47:41;;;;;;;13.43;8.33;;;12.00;99.90;;;;;;4989213;28;20468;-77
2022/12/23 09:50:18;;;;;;;13.43;8.27;;;12.00;99.90;;;;;;4990484;28;20467;-76
2022/12/23 09:52:54;;;;;;;16.93;8.00;;;12.00;99.90;;;;;;4978542;28;20433;-77
2022/12/23 09:55:23;;;;;;;7.50;6.70;;;11.90;99.90;;;;;;4976668;28;20843;-76
2022/12/23 09:57:57;;;;;;;9.40;6.63;;;11.90;99.90;;;;;;4976438;28;20837;-76
2022/12/23 10:00:29;;;;;;;9.60;7.63;;;11.90;99.90;;;;;;4976283;28;20451;-77
2022/12/23 10:03:07;;;;;;;11.47;7.17;;;11.90;99.90;;;;;;4976425;28;20437;-76
2022/12/23 10:05:45;;;;;;;11.30;5.60;;;11.90;99.90;;;;;;4975972;28;20487;-76
2022/12/23 10:08:17;;;;;;;9.03;5.00;;;11.90;99.90;;;;;;4975645;28;20878;-76
2022/12/23 10:10:48;;;;;;;4.80;4.40;;;11.90;99.90;;;;;;4975895;28;20434;-76
2022/12/23 10:13:25;;;;;;;5.70;4.20;;;12.00;99.90;;;;;;4975767;28;20967;-76
2022/12/23 10:15:54;;;;;;;6.50;3.80;;;11.90;99.90;;;;;;4975638;28;20469;-76
2022/12/23 10:18:27;;;;;;;5.67;2.97;;;11.90;99.90;;;;;;4975423;28;20943;-76
2022/12/23 10:21:02;;;;;;;4.73;3.77;;;12.00;99.90;;;;;;4976008;28;20457;-76
2022/12/23 10:23:36;;;;;;;6.13;3.37;;;12.00;99.90;;;;;;4976115;28;20437;-76
2022/12/23 10:26:07;;;;;;;4.43;2.93;;;12.00;99.90;;;;;;4975821;28;20915;-76
2022/12/23 10:28:34;;;;;;;4.37;2.97;;;12.00;99.90;;;;;;4975442;28;20433;-76
2022/12/23 10:31:05;;;;;;;5.00;3.30;;;12.00;99.90;;;;;;4974901;28;20845;-76
2022/12/23 10:33:39;;;;;;;5.43;3.10;;;12.10;99.90;;;;;;4975468;28;20441;-77
2022/12/23 10:36:14;;;;;;;3.50;3.00;;;12.10;99.90;;;;;;4975125;28;20484;-77
2022/12/23 10:38:50;;;;;;;6.23;3.10;;;12.10;99.90;;;;;;4975218;28;20441;-76
2022/12/23 10:41:28;;;;;;;5.30;3.27;;;12.10;99.90;;;;;;4975281;28;20436;-76
2022/12/23 10:44:08;;;;;;;5.30;3.60;;;12.10;99.90;;;;;;4975048;28;20453;-76
2022/12/23 10:46:45;;;;;;;6.40;3.80;;;12.10;99.90;;;;;;4974982;28;20444;-76
2022/12/23 10:49:20;;;;;;;4.50;4.10;;;12.10;99.90;;;;;;4975281;28;20441;-77
2022/12/23 10:51:50;;;;;;;6.20;4.77;;;12.10;99.90;;;;;;4974863;28;20469;-76
2022/12/23 10:54:21;;;;;;;7.27;5.27;;;12.10;99.90;;;;;;4975044;28;20477;-77
2022/12/23 10:56:48;;;;;;;4.80;4.30;;;12.10;99.90;;;;;;4975107;28;20441;-77
2022/12/23 10:59:18;;;;;;;7.33;3.97;;;12.10;99.90;;;;;;4975207;28;20452;-76
2022/12/23 11:01:52;;;;;;;5.57;4.50;;;12.10;99.90;;;;;;4974962;28;20445;-77
2022/12/23 11:04:23;;;;;;;7.70;4.30;;;12.10;99.90;;;;;;4974620;28;21024;-76
2022/12/23 11:06:52;;;;;;;5.90;4.37;;;12.10;99.90;;;;;;4974997;28;20856;-76
2022/12/23 11:09:23;;;;;;;8.00;4.33;;;12.10;99.90;;;;;;4975198;28;20457;-77
2022/12/23 11:11:58;;;;;;;7.50;4.87;;;12.00;99.90;;;;;;4976210;28;20817;-76
2022/12/23 11:14:34;;;;;;;5.33;4.50;;;12.00;99.90;;;;;;4974819;28;20988;-76
2022/12/23 11:17:02;;;;;;;7.37;4.23;;;12.00;99.90;;;;;;4974930;28;20492;-77
2022/12/23 11:19:29;;;;;;;5.23;4.40;;;12.00;99.90;;;;;;4975139;28;20476;-77
2022/12/23 11:21:57;;;;;;;5.13;3.50;;;12.00;99.90;;;;;;4975626;28;20472;-77
2022/12/23 11:24:25;;;;;;;5.20;3.90;;;12.10;99.90;;;;;;4974623;28;21032;-76
2022/12/23 11:27:00;;;;;;;4.60;3.50;;;12.10;99.90;;;;;;4974510;28;20974;-78
2022/12/23 11:29:30;;;;;;;4.93;3.40;;;12.10;99.90;;;;;;4976623;28;20444;-77
2022/12/23 11:31:57;;;;;;;5.90;3.83;;;12.10;99.90;;;;;;4988434;28;20460;-77
2022/12/23 11:34:26;;;;;;;4.87;3.63;;;12.10;99.90;;;;;;4991014;28;20501;-77
2022/12/23 11:36:55;;;;;;;7.07;3.50;;;12.10;99.90;;;;;;4976653;28;20857;-77
2022/12/23 11:39:26;;;;;;;3.80;2.77;;;12.10;99.90;;;;;;4974506;28;20457;-78
2022/12/23 11:42:02;;;;;;;4.77;3.53;;;12.10;99.90;;;;;;4974803;28;20473;-77
2022/12/23 11:44:31;;;;;;;6.53;3.40;;;12.00;99.90;;;;;;4974612;28;20529;-77
2022/12/23 11:47:16;;;;;;;3.87;2.83;;;12.00;99.90;;;;;;4974399;28;20461;-77
2022/12/23 11:49:49;;;;;;;5.40;4.00;;;12.00;99.90;;;;;;4974269;28;20903;-77
2022/12/23 11:52:19;;;;;;;5.60;3.77;;;12.00;99.90;;;;;;4974497;28;20465;-78
2022/12/23 11:54:50;;;;;;;5.03;3.27;;;12.10;99.90;;;;;;4974386;28;20480;-78
2022/12/23 11:57:21;;;;;;;5.50;2.60;;;12.00;99.90;;;;;;4975394;28;20436;-78
2022/12/23 11:59:49;;;;;;;6.73;3.43;;;12.00;99.90;;;;;;4978116;28;20465;-78
2022/12/23 12:02:21;;;;;;;5.73;2.60;;;12.00;99.90;;;;;;4978268;28;20449;-78
2022/12/23 12:04:57;;;;;;;5.40;1.97;;;11.90;99.90;;;;;;4978009;28;20497;-78
2022/12/23 12:07:26;;;;;;;2.87;2.47;;;11.90;99.90;;;;;;4978059;28;20460;-78
2022/12/23 12:09:56;;;;;;;3.87;1.73;;;11.80;99.90;;;;;;4978089;28;20464;-78
2022/12/23 12:12:23;;;;;;;3.00;1.70;;;11.80;99.90;;;;;;4977607;28;20934;-78
2022/12/23 12:14:53;;;;;;;4.87;2.07;;;11.80;99.90;;;;;;4977875;28;20477;-78
2022/12/23 12:17:25;;;;;;;4.33;2.00;;;11.70;99.90;;;;;;4977669;28;20460;-77
2022/12/23 12:20:04;;;;;;;3.00;2.17;;;11.70;99.90;;;;;;4977839;28;20441;-78
2022/12/23 12:22:38;;;;;;;2.83;1.70;;;11.70;99.90;;;;;;4977466;28;20439;-77
2022/12/23 12:25:15;;;;;;;3.40;1.43;;;11.70;99.90;;;;;;4977793;28;20497;-77
2022/12/23 12:27:46;;;;;;;6.40;1.97;;;11.60;99.90;;;;;;4977655;28;20437;-78
2022/12/23 12:30:18;;;;;;;3.70;1.77;;;11.60;99.90;;;;;;4977645;28;20485;-78
2022/12/23 12:33:03;;;;;;;3.50;1.90;;;11.60;99.90;;;;;;4978049;28;20472;-78
2022/12/23 12:35:37;;;;;;;5.20;2.13;;;11.60;99.90;;;;;;4978961;28;20567;-78
2022/12/23 12:38:12;;;;;;;1.87;1.60;;;11.60;99.90;;;;;;4977921;28;20440;-78
2022/12/23 12:40:43;;;;;;;2.37;1.50;;;11.70;99.90;;;;;;4978114;28;20968;-78
2022/12/23 12:43:20;;;;;;;2.77;1.70;;;11.70;99.90;;;;;;4978207;28;20453;-77
2022/12/23 12:45:52;;;;;;;3.57;2.07;;;11.70;99.90;;;;;;4977509;28;21004;-78
2022/12/23 12:48:34;;;;;;;3.87;2.03;;;11.70;99.90;;;;;;4977464;28;20418;-78
2022/12/23 12:51:09;;;;;;;2.97;1.70;;;11.70;99.90;;;;;;4977081;28;20945;-79
2022/12/23 12:53:42;;;;;;;4.27;2.47;;;11.70;99.90;;;;;;4977887;28;20453;-78
2022/12/23 12:56:18;;;;;;;5.33;2.00;;;11.80;99.90;;;;;;4978040;28;20988;-79
2022/12/23 12:58:45;;;;;;;5.30;2.70;;;11.80;99.90;;;;;;4977820;28;20449;-78
2022/12/23 13:01:24;;;;;;;3.20;2.23;;;11.80;99.90;;;;;;4977364;28;20468;-78
2022/12/23 13:04:34;;;;;;;6.10;2.37;;;11.90;99.90;;;;;;4978284;28;20460;-79
2022/12/23 13:07:13;;;;;;;6.63;2.23;;;11.80;99.90;;;;;;4977355;28;20429;-79
2022/12/23 13:09:53;;;;;;;3.20;2.20;;;11.80;99.90;;;;;;4975904;28;20771;-77
2022/12/23 13:12:29;;;;;;;3.93;3.03;;;11.80;99.90;;;;;;4977505;28;20442;-77
2022/12/23 13:15:01;;;;;;;4.23;3.50;;;11.80;99.90;;;;;;4976852;28;20464;-77
2022/12/23 13:17:33;;;;;;;7.23;2.70;;;11.70;99.90;;;;;;4976862;28;20791;-77
2022/12/23 13:20:14;;;;;;;7.53;3.20;;;11.70;99.90;;;;;;4976512;28;20440;-78
2022/12/23 13:22:44;;;;;;;4.47;2.70;;;11.70;99.90;;;;;;4976740;28;20443;-79
2022/12/23 13:25:17;;;;;;;3.10;2.60;;;11.70;99.90;;;;;;4976466;28;20500;-78
2022/12/23 13:27:55;;;;;;;4.30;3.20;;;11.70;99.90;;;;;;4976733;28;20436;-78